Time;durP1;ratioP1;P1;durP2;ratioP2;P2;SDS_P1;SDS_P2;PMS_P1;PMS_P2;Temp;Humidity;BMP_temperature;BMP_pressure;BME280_temperature;BME280_humidity;BME280_pressure;Samples;Min_cycle;Max_cycle;Signal;HPM_P1;HPM_P2
2023/03/22 00:01:35;;;;;;;;;;;;;;;22.00;41.95;100195.66;7253802;19;154097;-57
2023/03/22 00:04:02;;;;;;;;;;;;;;;22.01;42.30;100188.88;7254286;19;152420;-57
2023/03/22 00:06:29;;;;;;;;;;;;;;;22.00;41.94;100184.41;7255551;19;155419;-57
2023/03/22 00:08:56;;;;;;;;;;;;;;;22.00;41.83;100188.06;7252074;19;154323;-57
2023/03/22 00:11:24;;;;;;;;;;;;;;;22.02;42.00;100168.03;7257785;19;152785;-56
2023/03/22 00:13:52;;;;;;;;;;;;;;;21.99;42.16;100166.72;7251202;19;153276;-57
2023/03/22 00:16:19;;;;;;;;;;;;;;;21.98;42.02;100161.44;7253446;19;153336;-57
2023/03/22 00:18:46;;;;;;;;;;;;;;;21.96;41.62;100167.41;7251304;19;154303;-57
2023/03/22 00:21:15;;;;;;;;;;;;;;;21.95;41.60;100162.94;7250878;19;153883;-57
2023/03/22 00:23:42;;;;;;;;;;;;;;;21.95;41.93;100150.84;7249982;19;153040;-56
2023/03/22 00:26:09;;;;;;;;;;;;;;;21.96;41.71;100161.78;7250874;19;154993;-56
2023/03/22 00:28:36;;;;;;;;;;;;;;;21.95;41.98;100148.03;7250198;19;153447;-56
2023/03/22 00:31:04;;;;;;;;;;;;;;;21.96;41.63;100144.91;7251255;19;152425;-57
2023/03/22 00:33:31;;;;;;;;;;;;;;;21.95;41.91;100142.41;7256650;19;153710;-56
2023/03/22 00:35:59;;;;;;;;;;;;;;;21.93;41.76;100133.50;7252990;19;154296;-56
2023/03/22 00:38:35;;;;;;;;;;;;;;;21.92;42.09;100131.81;7254363;19;153878;-56
2023/03/22 00:41:13;;;;;;;;;;;;;;;21.87;42.15;100123.56;7251701;19;154013;-56
2023/03/22 00:43:39;;;;;;;;;;;;;;;21.89;42.60;100112.81;7254952;19;153286;-57
2023/03/22 00:46:07;;;;;;;;;;;;;;;21.89;42.19;100124.06;7256084;19;153593;-60
2023/03/22 00:48:34;;;;;;;;;;;;;;;21.86;41.94;100110.66;7252300;19;154648;-56
2023/03/22 00:51:01;;;;;;;;;;;;;;;21.86;42.54;100099.41;7250939;19;154153;-56
2023/03/22 00:53:28;;;;;;;;;;;;;;;21.84;42.28;100102.56;7250315;19;153528;-56
2023/03/22 00:55:56;;;;;;;;;;;;;;;21.82;42.58;100095.63;7260171;19;153955;-56
2023/03/22 00:58:23;;;;;;;;;;;;;;;21.84;42.58;100080.06;7247494;19;153020;-56
2023/03/22 01:00:50;;;;;;;;;;;;;;;21.81;42.55;100077.91;7248099;19;154548;-55
2023/03/22 01:03:17;;;;;;;;;;;;;;;21.79;42.37;100076.63;7251909;19;153354;-55
2023/03/22 01:05:45;;;;;;;;;;;;;;;21.77;42.36;100056.44;7253730;19;152932;-56
2023/03/22 01:08:13;;;;;;;;;;;;;;;21.74;42.37;100058.78;7251579;19;154281;-56
2023/03/22 01:10:40;;;;;;;;;;;;;;;21.72;42.41;100047.03;7249879;19;153393;-56
2023/03/22 01:13:07;;;;;;;;;;;;;;;21.69;42.34;100041.28;7250749;19;153689;-56
2023/03/22 01:15:35;;;;;;;;;;;;;;;21.65;42.63;100027.06;7250430;19;156066;-55
2023/03/22 01:18:02;;;;;;;;;;;;;;;21.62;42.55;100030.53;7261405;19;153039;-56
2023/03/22 01:20:29;;;;;;;;;;;;;;;21.61;42.92;100030.91;7251171;19;153924;-55
2023/03/22 01:22:56;;;;;;;;;;;;;;;21.58;42.72;100023.13;7253272;19;154174;-56
2023/03/22 01:25:23;;;;;;;;;;;;;;;21.54;42.76;100022.97;7243862;19;152610;-56
2023/03/22 01:27:50;;;;;;;;;;;;;;;21.49;43.15;100017.53;7257224;19;153772;-56
2023/03/22 01:30:16;;;;;;;;;;;;;;;21.52;43.11;100022.50;7257836;19;153236;-56
2023/03/22 01:32:43;;;;;;;;;;;;;;;21.47;43.29;100033.09;7257051;19;155244;-56
2023/03/22 01:35:10;;;;;;;;;;;;;;;21.46;43.55;100020.22;7261929;19;153501;-55
2023/03/22 01:37:37;;;;;;;;;;;;;;;21.42;43.28;100022.88;7262026;19;151999;-56
2023/03/22 01:40:05;;;;;;;;;;;;;;;21.42;43.32;100000.41;7265104;19;154153;-56
2023/03/22 01:42:32;;;;;;;;;;;;;;;21.40;43.71;100005.50;7257173;19;153727;-55
2023/03/22 01:45:02;;;;;;;;;;;;;;;21.40;43.43;100007.50;7260963;19;154292;-55
2023/03/22 01:47:30;;;;;;;;;;;;;;;21.37;43.52;99999.75;7258600;19;153939;-55
2023/03/22 01:49:57;;;;;;;;;;;;;;;21.35;43.80;99980.41;7242752;19;156024;-56
2023/03/22 01:52:24;;;;;;;;;;;;;;;21.35;44.05;99977.59;7265895;19;152808;-55
2023/03/22 01:54:52;;;;;;;;;;;;;;;21.29;44.15;99971.38;7262638;19;153511;-55
2023/03/22 01:57:19;;;;;;;;;;;;;;;21.32;43.68;99977.47;7261447;19;153718;-55
2023/03/22 01:59:48;;;;;;;;;;;;;;;21.27;44.25;99984.09;7265341;19;153183;-55
2023/03/22 02:04:49;;;;;;;;;;;;;;;21.23;44.15;99960.63;7259941;19;154544;-55
2023/03/22 02:07:24;;;;;;;;;;;;;;;21.23;43.91;99966.25;7254932;19;153936;-55
2023/03/22 02:09:53;;;;;;;;;;;;;;;21.15;44.64;99953.09;7256946;19;154067;-55
2023/03/22 02:12:23;;;;;;;;;;;;;;;21.15;44.58;99962.34;7257622;19;154037;-56
2023/03/22 02:14:51;;;;;;;;;;;;;;;21.15;44.19;99942.66;7256858;19;153888;-56
2023/03/22 02:17:21;;;;;;;;;;;;;;;21.15;44.42;99941.84;7248569;19;153628;-56
2023/03/22 02:19:51;;;;;;;;;;;;;;;21.13;44.54;99950.59;7256979;19;151890;-56
2023/03/22 02:22:20;;;;;;;;;;;;;;;21.11;44.71;99935.22;7262953;19;153945;-55
2023/03/22 02:24:50;;;;;;;;;;;;;;;21.09;44.44;99929.94;7258848;19;153759;-56
2023/03/22 02:27:20;;;;;;;;;;;;;;;21.09;44.96;99929.09;7253670;19;152155;-56
2023/03/22 02:29:53;;;;;;;;;;;;;;;21.08;44.97;99928.28;7254085;19;153095;-56
2023/03/22 02:32:22;;;;;;;;;;;;;;;21.05;44.85;99916.91;7258264;19;152796;-56
2023/03/22 02:34:50;;;;;;;;;;;;;;;21.02;44.75;99921.22;7258584;19;155195;-56
2023/03/22 02:37:20;;;;;;;;;;;;;;;20.98;45.23;99925.03;7259958;19;152999;-55
2023/03/22 02:39:50;;;;;;;;;;;;;;;20.98;44.96;99911.81;7257890;19;153775;-56
2023/03/22 02:42:17;;;;;;;;;;;;;;;20.92;45.16;99893.50;7243761;19;153889;-55
2023/03/22 02:44:48;;;;;;;;;;;;;;;20.93;45.05;99897.97;7267923;19;153948;-55
2023/03/22 02:47:19;;;;;;;;;;;;;;;20.92;45.29;99889.88;7259735;19;153759;-55
2023/03/22 02:49:52;;;;;;;;;;;;;;;20.92;45.51;99876.66;7256402;19;152140;-56
2023/03/22 02:52:25;;;;;;;;;;;;;;;20.85;45.74;99882.78;7255680;19;153135;-55
2023/03/22 02:54:52;;;;;;;;;;;;;;;20.84;45.95;99875.53;7257303;19;153666;-56
2023/03/22 02:57:24;;;;;;;;;;;;;;;20.82;46.00;99883.47;7259172;19;153071;-55
2023/03/22 02:59:52;;;;;;;;;;;;;;;20.83;45.80;99878.69;7257281;19;153560;-55
2023/03/22 03:02:20;;;;;;;;;;;;;;;20.83;45.82;99884.28;7253761;19;152728;-56
2023/03/22 03:04:48;;;;;;;;;;;;;;;20.78;45.68;99864.81;7257279;19;153906;-55
2023/03/22 03:07:18;;;;;;;;;;;;;;;20.77;45.77;99866.81;7252366;19;153942;-55
2023/03/22 03:09:46;;;;;;;;;;;;;;;20.75;45.86;99874.75;7256911;19;153559;-56
2023/03/22 03:12:17;;;;;;;;;;;;;;;20.72;46.28;99858.56;7255395;19;153963;-55
2023/03/22 03:14:44;;;;;;;;;;;;;;;20.72;46.17;99852.13;7256712;19;153664;-55
2023/03/22 03:17:11;;;;;;;;;;;;;;;20.71;45.74;99850.50;7260908;19;152766;-56
2023/03/22 03:19:44;;;;;;;;;;;;;;;20.66;46.28;99857.13;7260204;19;153451;-56
2023/03/22 03:22:14;;;;;;;;;;;;;;;20.68;45.78;99843.56;7256717;19;154086;-56
2023/03/22 03:24:47;;;;;;;;;;;;;;;20.69;45.95;99831.19;7262328;19;153004;-56
2023/03/22 03:27:16;;;;;;;;;;;;;;;20.66;46.19;99826.25;7259557;19;154112;-56
2023/03/22 03:29:46;;;;;;;;;;;;;;;20.57;46.51;99830.25;7263171;19;155312;-56
2023/03/22 03:32:18;;;;;;;;;;;;;;;20.55;46.32;99826.94;7257661;19;152679;-56
2023/03/22 03:34:50;;;;;;;;;;;;;;;20.57;46.49;99827.44;7248721;19;153673;-56
2023/03/22 03:37:21;;;;;;;;;;;;;;;20.58;46.31;99826.28;7259146;19;152992;-56
2023/03/22 03:39:51;;;;;;;;;;;;;;;20.53;46.55;99827.28;7257679;19;155560;-54
2023/03/22 03:42:20;;;;;;;;;;;;;;;20.51;46.45;99824.00;7254959;19;153600;-55
2023/03/22 03:44:47;;;;;;;;;;;;;;;20.52;46.78;99825.66;7261350;19;153715;-55
2023/03/22 03:47:15;;;;;;;;;;;;;;;20.51;46.84;99820.34;7261927;19;153403;-57
2023/03/22 03:49:41;;;;;;;;;;;;;;;20.48;46.57;99815.44;7255286;19;153670;-55
2023/03/22 03:52:08;;;;;;;;;;;;;;;20.48;46.82;99819.06;7264412;19;153116;-54
2023/03/22 03:54:35;;;;;;;;;;;;;;;20.46;46.84;99812.13;7259484;19;153809;-55
2023/03/22 03:57:02;;;;;;;;;;;;;;;20.45;47.06;99807.66;7256745;19;153029;-55
2023/03/22 03:59:29;;;;;;;;;;;;;;;20.42;46.77;99806.34;7237949;19;153344;-55
2023/03/22 04:01:56;;;;;;;;;;;;;;;20.44;47.05;99800.44;7253870;19;153819;-54
2023/03/22 04:04:25;;;;;;;;;;;;;;;20.44;47.12;99803.22;7254751;19;153738;-55
2023/03/22 04:06:55;;;;;;;;;;;;;;;20.40;46.91;99798.28;7255362;19;152998;-55
2023/03/22 04:09:23;;;;;;;;;;;;;;;20.40;46.86;99800.25;7251513;19;154181;-55
2023/03/22 04:11:50;;;;;;;;;;;;;;;20.38;47.45;99794.16;7258394;19;152299;-54
2023/03/22 04:14:17;;;;;;;;;;;;;;;20.34;47.20;99802.44;7253965;19;153649;-54
2023/03/22 04:16:44;;;;;;;;;;;;;;;20.34;47.44;99794.03;7257575;19;152679;-54
2023/03/22 04:19:11;;;;;;;;;;;;;;;20.34;47.60;99798.81;7254315;19;153964;-55
2023/03/22 04:21:38;;;;;;;;;;;;;;;20.33;47.44;99792.38;7254762;19;153363;-56
2023/03/22 04:24:05;;;;;;;;;;;;;;;20.31;47.62;99796.66;7246798;19;153133;-54
2023/03/22 04:26:32;;;;;;;;;;;;;;;20.30;47.71;99795.03;7255019;19;153246;-54
2023/03/22 04:29:01;;;;;;;;;;;;;;;20.21;48.26;99811.84;7246658;19;153445;-54
2023/03/22 04:31:29;;;;;;;;;;;;;;;20.17;48.00;99796.81;7251782;19;152493;-57
2023/03/22 04:33:56;;;;;;;;;;;;;;;20.13;48.41;99795.03;7262150;19;152809;-56
2023/03/22 04:36:23;;;;;;;;;;;;;;;20.09;48.35;99791.25;7255285;19;153999;-56
2023/03/22 04:38:50;;;;;;;;;;;;;;;20.05;48.76;99809.88;7250722;19;152764;-56
2023/03/22 04:41:17;;;;;;;;;;;;;;;20.05;48.69;99787.47;7250932;19;154205;-56
2023/03/22 04:43:45;;;;;;;;;;;;;;;20.03;48.50;99803.81;7253753;19;154034;-56
2023/03/22 04:46:13;;;;;;;;;;;;;;;19.99;48.77;99801.66;7257011;19;153415;-56
2023/03/22 04:48:40;;;;;;;;;;;;;;;19.97;48.86;99792.75;7252410;19;153823;-56
2023/03/22 04:51:08;;;;;;;;;;;;;;;19.97;48.98;99798.38;7242697;19;154714;-56
2023/03/22 04:53:37;;;;;;;;;;;;;;;19.97;48.62;99789.97;7252572;19;153455;-55
2023/03/22 04:56:06;;;;;;;;;;;;;;;19.94;48.86;99789.81;7261374;19;154121;-57
2023/03/22 04:58:35;;;;;;;;;;;;;;;20.02;48.83;99791.75;7262560;19;153269;-56
2023/03/22 05:01:02;;;;;;;;;;;;;;;19.94;48.96;99790.59;7259527;19;153671;-56
2023/03/22 05:03:28;;;;;;;;;;;;;;;19.92;49.12;99792.94;7259409;19;153318;-56
2023/03/22 05:05:57;;;;;;;;;;;;;;;19.90;49.11;99791.59;7263520;19;154119;-56
2023/03/22 05:08:25;;;;;;;;;;;;;;;19.90;48.96;99795.22;7261315;19;153963;-56
2023/03/22 05:10:53;;;;;;;;;;;;;;;19.88;48.85;99797.56;7256922;19;153311;-56
2023/03/22 05:13:21;;;;;;;;;;;;;;;19.85;49.10;99798.19;7259670;19;153345;-56
2023/03/22 05:15:48;;;;;;;;;;;;;;;19.83;49.10;99800.53;7256465;19;154306;-56
2023/03/22 05:18:15;;;;;;;;;;;;;;;19.82;49.51;99793.28;7267688;19;153895;-56
2023/03/22 05:20:42;;;;;;;;;;;;;;;19.81;49.56;99794.41;7259749;19;154196;-56
2023/03/22 05:23:09;;;;;;;;;;;;;;;19.84;49.19;99792.94;7260045;19;152625;-56
2023/03/22 05:25:37;;;;;;;;;;;;;;;19.84;49.56;99799.38;7261786;19;153962;-56
2023/03/22 05:28:04;;;;;;;;;;;;;;;19.84;49.33;99806.97;7260921;19;153694;-56
2023/03/22 05:30:31;;;;;;;;;;;;;;;19.81;49.54;99807.59;7253162;19;153337;-56
2023/03/22 05:32:59;;;;;;;;;;;;;;;19.77;49.32;99796.25;7260097;19;153724;-56
2023/03/22 05:35:26;;;;;;;;;;;;;;;19.79;49.54;99807.97;7257041;19;152861;-55
2023/03/22 05:37:53;;;;;;;;;;;;;;;19.80;49.33;99794.78;7249694;19;154033;-55
2023/03/22 05:40:19;;;;;;;;;;;;;;;19.78;49.79;99799.88;7263748;19;152600;-55
2023/03/22 05:42:46;;;;;;;;;;;;;;;19.78;50.00;99803.50;7258830;19;153314;-56
2023/03/22 05:45:14;;;;;;;;;;;;;;;19.73;49.75;99795.25;7261021;19;153594;-56
2023/03/22 05:47:41;;;;;;;;;;;;;;;19.75;49.87;99800.53;7257272;19;152540;-55
2023/03/22 05:50:09;;;;;;;;;;;;;;;19.75;50.00;99798.56;7260260;19;153343;-56
2023/03/22 05:52:36;;;;;;;;;;;;;;;19.74;49.96;99798.91;7258631;19;154081;-56
2023/03/22 05:55:03;;;;;;;;;;;;;;;19.76;49.82;99803.00;7254691;19;153876;-56
2023/03/22 05:57:30;;;;;;;;;;;;;;;19.70;50.18;99798.72;7257770;19;152862;-56
2023/03/22 05:59:58;;;;;;;;;;;;;;;19.67;50.00;99802.19;7257496;19;154754;-56
2023/03/22 06:02:25;;;;;;;;;;;;;;;19.68;49.87;99800.19;7252404;19;152992;-56
2023/03/22 06:04:52;;;;;;;;;;;;;;;19.63;50.40;99801.19;7261914;19;153044;-55
2023/03/22 06:07:19;;;;;;;;;;;;;;;19.66;50.27;99794.94;7258738;19;153645;-56
2023/03/22 06:09:46;;;;;;;;;;;;;;;19.65;49.93;99809.28;7254918;19;154436;-56
2023/03/22 06:12:14;;;;;;;;;;;;;;;19.62;50.22;99805.19;7258157;19;154133;-55
2023/03/22 06:14:41;;;;;;;;;;;;;;;19.65;50.16;99801.69;7256444;19;153371;-56
2023/03/22 06:17:08;;;;;;;;;;;;;;;19.59;50.28;99791.81;7260009;19;153611;-55
2023/03/22 06:19:35;;;;;;;;;;;;;;;19.61;50.42;99788.69;7258359;19;154354;-56
2023/03/22 06:22:02;;;;;;;;;;;;;;;19.59;50.20;99785.38;7264471;19;154040;-56
2023/03/22 06:24:28;;;;;;;;;;;;;;;19.59;50.21;99793.78;7254380;19;152452;-56
2023/03/22 06:26:55;;;;;;;;;;;;;;;19.58;50.37;99784.56;7257685;19;153469;-55
2023/03/22 06:29:22;;;;;;;;;;;;;;;19.57;50.46;99791.34;7255045;19;153046;-56
2023/03/22 06:31:49;;;;;;;;;;;;;;;19.55;50.25;99788.03;7251485;19;153261;-55
2023/03/22 06:34:16;;;;;;;;;;;;;;;19.55;50.53;99790.81;7255173;19;153492;-56
2023/03/22 06:36:43;;;;;;;;;;;;;;;19.54;50.63;99789.16;7256949;19;154021;-55
2023/03/22 06:39:10;;;;;;;;;;;;;;;19.49;50.86;99783.72;7256620;19;153643;-56
2023/03/22 06:41:37;;;;;;;;;;;;;;;19.49;50.44;99784.56;7254145;19;153011;-56
2023/03/22 06:44:04;;;;;;;;;;;;;;;19.53;50.44;99782.75;7262731;19;154242;-56
2023/03/22 06:46:31;;;;;;;;;;;;;;;19.50;50.46;99790.97;7257176;19;154067;-55
2023/03/22 06:48:58;;;;;;;;;;;;;;;19.52;50.20;99771.88;7256046;19;154015;-56
2023/03/22 06:51:25;;;;;;;;;;;;;;;19.50;50.58;99765.78;7255167;19;153241;-55
2023/03/22 06:53:52;;;;;;;;;;;;;;;19.52;50.64;99767.09;7252572;19;153980;-56
2023/03/22 06:56:19;;;;;;;;;;;;;;;19.55;50.25;99754.41;7244437;19;154234;-55
2023/03/22 06:58:46;;;;;;;;;;;;;;;19.54;50.49;99749.94;7257364;19;153373;-56
2023/03/22 07:01:13;;;;;;;;;;;;;;;19.54;50.26;99733.97;7255078;19;154226;-56
2023/03/22 07:03:40;;;;;;;;;;;;;;;19.59;50.14;99701.31;7257513;19;151841;-56
2023/03/22 07:06:07;;;;;;;;;;;;;;;19.63;50.38;99708.72;7266042;19;152823;-56
2023/03/22 07:08:34;;;;;;;;;;;;;;;19.67;50.99;99706.09;7257370;19;152030;-56
2023/03/22 07:11:01;;;;;;;;;;;;;;;19.72;50.75;99720.75;7254275;19;153678;-56
2023/03/22 07:13:28;;;;;;;;;;;;;;;19.78;50.65;99729.81;7253258;19;153283;-56
2023/03/22 07:15:56;;;;;;;;;;;;;;;19.82;50.51;99764.41;7255188;19;152366;-57
2023/03/22 07:18:24;;;;;;;;;;;;;;;19.84;51.28;99726.50;7256473;19;153479;-56
2023/03/22 07:20:51;;;;;;;;;;;;;;;19.87;51.62;99725.81;7238080;19;154508;-56
2023/03/22 07:23:18;;;;;;;;;;;;;;;19.90;52.14;99749.56;7253535;19;154033;-57
2023/03/22 07:25:45;;;;;;;;;;;;;;;19.89;50.50;99775.97;7253116;19;152841;-55
2023/03/22 07:28:13;;;;;;;;;;;;;;;19.86;50.10;99774.63;7264013;19;154929;-56
2023/03/22 07:30:40;;;;;;;;;;;;;;;19.93;50.38;99780.56;7251997;19;153345;-56
2023/03/22 07:33:08;;;;;;;;;;;;;;;19.99;49.97;99773.63;7247442;19;153901;-56
2023/03/22 07:35:36;;;;;;;;;;;;;;;20.03;49.86;99775.78;7254828;19;153386;-56
2023/03/22 07:38:03;;;;;;;;;;;;;;;20.06;49.61;99801.16;7253710;19;155561;-56
2023/03/22 07:40:33;;;;;;;;;;;;;;;20.09;49.25;99780.84;7251699;19;154177;-56
2023/03/22 07:43:00;;;;;;;;;;;;;;;20.14;49.12;99788.25;7251043;19;153014;-56
2023/03/22 07:45:27;;;;;;;;;;;;;;;20.17;49.45;99788.41;7254489;19;153341;-56
2023/03/22 07:47:54;;;;;;;;;;;;;;;20.21;48.91;99794.19;7257162;19;155416;-56
2023/03/22 07:50:21;;;;;;;;;;;;;;;20.24;48.92;99791.53;7268823;19;153771;-56
2023/03/22 07:52:48;;;;;;;;;;;;;;;20.30;49.11;99797.81;7260608;19;153646;-56
2023/03/22 07:55:15;;;;;;;;;;;;;;;20.22;48.74;99813.47;7257681;19;152735;-55
2023/03/22 07:57:42;;;;;;;;;;;;;;;20.29;48.97;99802.59;7258671;19;154146;-56
2023/03/22 08:00:12;;;;;;;;;;;;;;;20.34;48.78;99816.47;7254456;19;154290;-56
2023/03/22 08:02:44;;;;;;;;;;;;;;;20.39;48.54;99795.81;7257393;19;152900;-54
2023/03/22 08:05:11;;;;;;;;;;;;;;;20.43;48.35;99796.78;7256100;19;153656;-54
2023/03/22 08:07:38;;;;;;;;;;;;;;;20.47;48.17;99785.72;7256004;19;153681;-54
2023/03/22 08:10:06;;;;;;;;;;;;;;;20.51;48.30;99793.13;7266042;19;152355;-54
2023/03/22 08:12:33;;;;;;;;;;;;;;;20.56;47.82;99798.56;7256327;19;153762;-54
2023/03/22 08:15:00;;;;;;;;;;;;;;;20.59;47.64;99797.88;7255253;19;153188;-54
2023/03/22 08:17:29;;;;;;;;;;;;;;;20.63;47.69;99796.03;7255459;19;153490;-54
2023/03/22 08:19:56;;;;;;;;;;;;;;;20.69;48.02;99800.31;7256651;19;154357;-54
2023/03/22 08:22:24;;;;;;;;;;;;;;;20.72;47.75;99801.59;7257615;19;151981;-59
2023/03/22 08:24:51;;;;;;;;;;;;;;;20.77;47.58;99807.03;7257635;19;153249;-54
2023/03/22 08:27:19;;;;;;;;;;;;;;;20.80;47.69;99812.00;7257495;19;153920;-54
2023/03/22 08:29:47;;;;;;;;;;;;;;;20.82;47.32;99802.06;7258093;19;151805;-54
2023/03/22 08:32:15;;;;;;;;;;;;;;;20.89;47.55;99814.75;7259876;19;154002;-60
2023/03/22 08:34:42;;;;;;;;;;;;;;;20.95;47.28;99802.97;7255761;19;153677;-54
2023/03/22 08:37:10;;;;;;;;;;;;;;;20.99;47.68;99806.75;7253427;19;154083;-62
2023/03/22 08:39:37;;;;;;;;;;;;;;;21.02;47.68;99796.81;7252996;19;154107;-54
2023/03/22 08:42:04;;;;;;;;;;;;;;;21.05;47.29;99794.16;7256704;19;153225;-54
2023/03/22 08:44:31;;;;;;;;;;;;;;;21.09;47.68;99791.47;7256312;19;154854;-54
2023/03/22 08:46:59;;;;;;;;;;;;;;;21.15;47.02;99795.78;7256459;19;154619;-54
2023/03/22 08:49:28;;;;;;;;;;;;;;;21.19;47.28;99796.75;7256898;19;153958;-54
2023/03/22 08:51:56;;;;;;;;;;;;;;;21.22;46.85;99801.66;7256751;19;153220;-55
2023/03/22 08:54:23;;;;;;;;;;;;;;;21.22;46.82;99805.31;7245871;19;153308;-55
2023/03/22 08:56:50;;;;;;;;;;;;;;;21.26;46.75;99809.06;7251893;19;153567;-55
2023/03/22 08:59:17;;;;;;;;;;;;;;;21.29;46.90;99816.00;7251092;19;154222;-55
2023/03/22 09:01:44;;;;;;;;;;;;;;;21.30;46.62;99818.47;7253328;19;153063;-55
2023/03/22 09:04:12;;;;;;;;;;;;;;;21.31;46.74;99822.09;7252619;19;152661;-55
2023/03/22 09:06:41;;;;;;;;;;;;;;;21.32;46.97;99820.13;7255334;19;153880;-55
2023/03/22 09:09:08;;;;;;;;;;;;;;;21.32;46.43;99826.56;7249159;19;152967;-55
2023/03/22 09:11:36;;;;;;;;;;;;;;;21.36;46.56;99837.94;7252210;19;152781;-55
2023/03/22 09:14:03;;;;;;;;;;;;;;;21.36;46.81;99835.94;7251394;19;153674;-55
2023/03/22 09:16:31;;;;;;;;;;;;;;;21.37;46.43;99833.97;7260216;19;153676;-54
2023/03/22 09:18:58;;;;;;;;;;;;;;;21.38;46.57;99836.44;7251501;19;154315;-54
2023/03/22 09:21:25;;;;;;;;;;;;;;;21.36;46.28;99833.13;7256094;19;153819;-54
2023/03/22 09:23:52;;;;;;;;;;;;;;;21.37;46.72;99831.16;7253987;19;153694;-55
2023/03/22 09:26:19;;;;;;;;;;;;;;;21.38;46.27;99838.44;7252211;19;154169;-54
2023/03/22 09:28:46;;;;;;;;;;;;;;;21.38;46.24;99844.88;7251539;19;153125;-54
2023/03/22 09:31:13;;;;;;;;;;;;;;;21.36;46.74;99844.38;7245955;19;154888;-55
2023/03/22 09:33:40;;;;;;;;;;;;;;;21.37;46.75;99837.59;7242960;19;154082;-55
2023/03/22 09:36:08;;;;;;;;;;;;;;;21.34;46.56;99838.28;7228361;19;153024;-55
2023/03/22 09:38:35;;;;;;;;;;;;;;;21.34;46.24;99821.44;7256228;19;154172;-55
2023/03/22 09:41:06;;;;;;;;;;;;;;;21.34;46.52;99823.41;7254238;19;153411;-55
2023/03/22 09:43:36;;;;;;;;;;;;;;;21.33;46.76;99824.56;7242256;19;153347;-55
2023/03/22 09:46:08;;;;;;;;;;;;;;;21.35;46.65;99831.47;7257210;19;153561;-55
2023/03/22 09:48:37;;;;;;;;;;;;;;;21.31;46.45;99830.53;7260678;19;152338;-55
2023/03/22 09:51:06;;;;;;;;;;;;;;;21.30;46.44;99835.31;7262295;19;152822;-55
2023/03/22 09:53:33;;;;;;;;;;;;;;;21.29;46.48;99846.91;7256421;19;155968;-55
2023/03/22 09:56:01;;;;;;;;;;;;;;;21.28;46.72;99845.25;7253226;19;152553;-55
2023/03/22 09:58:31;;;;;;;;;;;;;;;21.27;46.92;99846.41;7248588;19;153575;-55
2023/03/22 10:01:03;;;;;;;;;;;;;;;21.24;47.02;99833.06;7245140;19;154212;-55
2023/03/22 10:03:34;;;;;;;;;;;;;;;21.26;46.96;99839.16;7257352;19;153790;-55
2023/03/22 10:06:05;;;;;;;;;;;;;;;21.25;46.60;99837.53;7257542;19;154119;-55
2023/03/22 10:08:39;;;;;;;;;;;;;;;21.25;46.79;99834.72;7247378;19;153711;-54
2023/03/22 10:11:09;;;;;;;;;;;;;;;21.27;46.79;99838.00;7251403;19;153769;-55
2023/03/22 10:13:39;;;;;;;;;;;;;;;21.32;46.85;99839.78;7260209;19;153414;-55
2023/03/22 10:16:10;;;;;;;;;;;;;;;21.36;46.78;99830.31;7258723;19;153236;-55
2023/03/22 10:18:42;;;;;;;;;;;;;;;21.41;46.55;99835.75;7260135;19;153530;-55
2023/03/22 10:21:11;;;;;;;;;;;;;;;21.44;46.59;99837.06;7267427;19;153664;-55
2023/03/22 10:23:41;;;;;;;;;;;;;;;21.46;46.36;99860.84;7257909;19;155653;-55
2023/03/22 10:26:17;;;;;;;;;;;;;;;21.49;46.58;99851.72;7257137;19;154081;-55
2023/03/22 10:28:46;;;;;;;;;;;;;;;21.50;46.41;99842.13;7260775;19;152951;-55
2023/03/22 10:31:16;;;;;;;;;;;;;;;21.53;46.44;99852.69;7257539;19;153424;-55
2023/03/22 10:33:49;;;;;;;;;;;;;;;21.52;46.40;99851.06;7258245;19;152897;-55
2023/03/22 10:36:19;;;;;;;;;;;;;;;21.58;45.84;99849.66;7258727;19;152598;-55
2023/03/22 10:38:49;;;;;;;;;;;;;;;21.58;46.04;99851.66;7258099;19;154459;-55
2023/03/22 10:41:17;;;;;;;;;;;;;;;21.59;46.04;99858.94;7251610;19;155183;-55
2023/03/22 10:43:47;;;;;;;;;;;;;;;21.58;45.62;99846.84;7265287;19;154096;-55
2023/03/22 10:46:18;;;;;;;;;;;;;;;21.62;45.80;99835.78;7255417;19;154107;-55
2023/03/22 10:48:48;;;;;;;;;;;;;;;21.63;45.74;99838.22;7258804;19;153076;-55
2023/03/22 10:51:19;;;;;;;;;;;;;;;21.63;45.67;99852.28;7258182;19;153369;-55
2023/03/22 10:53:47;;;;;;;;;;;;;;;21.66;45.79;99845.16;7256619;19;153436;-55
2023/03/22 10:56:17;;;;;;;;;;;;;;;21.68;45.30;99851.25;7250114;19;152557;-55
2023/03/22 10:58:45;;;;;;;;;;;;;;;21.69;45.59;99850.09;7257021;19;153260;-55
2023/03/22 11:01:13;;;;;;;;;;;;;;;21.68;45.57;99846.44;7255132;19;153972;-55
2023/03/22 11:03:42;;;;;;;;;;;;;;;21.68;45.10;99842.81;7258355;19;153157;-55
2023/03/22 11:06:10;;;;;;;;;;;;;;;21.68;45.07;99838.03;7267365;19;153426;-55
2023/03/22 11:08:39;;;;;;;;;;;;;;;21.68;45.27;99848.44;7260641;19;153397;-55
2023/03/22 11:11:14;;;;;;;;;;;;;;;21.67;44.64;99835.53;7255088;19;153024;-55
2023/03/22 11:13:41;;;;;;;;;;;;;;;21.65;44.86;99827.47;7259032;19;155857;-55
2023/03/22 11:16:09;;;;;;;;;;;;;;;21.66;44.68;99831.94;7254355;19;151896;-55
2023/03/22 11:18:36;;;;;;;;;;;;;;;21.66;44.60;99833.91;7257359;19;153499;-55
2023/03/22 11:21:06;;;;;;;;;;;;;;;21.69;44.31;99844.47;7258372;19;154014;-55
2023/03/22 11:23:34;;;;;;;;;;;;;;;21.67;44.33;99847.63;7255727;19;152523;-55
2023/03/22 11:26:07;;;;;;;;;;;;;;;21.66;44.09;99843.19;7254324;19;154013;-55
2023/03/22 11:28:37;;;;;;;;;;;;;;;21.68;44.21;99848.44;7265276;19;153749;-55
2023/03/22 11:31:06;;;;;;;;;;;;;;;21.69;44.18;99844.47;7259045;19;152940;-55
2023/03/22 11:33:34;;;;;;;;;;;;;;;21.69;44.25;99841.66;7256257;19;154464;-55
2023/03/22 11:36:04;;;;;;;;;;;;;;;21.67;43.70;99827.09;7256671;19;152902;-56
2023/03/22 11:38:35;;;;;;;;;;;;;;;21.68;43.89;99817.50;7255543;19;153300;-58
2023/03/22 11:41:05;;;;;;;;;;;;;;;21.69;43.73;99814.38;7256211;19;153529;-56
2023/03/22 11:43:33;;;;;;;;;;;;;;;21.69;44.03;99800.31;7259208;19;152945;-55
2023/03/22 11:46:01;;;;;;;;;;;;;;;21.70;43.75;99813.22;7253830;19;154210;-55
2023/03/22 11:48:30;;;;;;;;;;;;;;;21.72;43.51;99807.22;7255592;19;155726;-55
2023/03/22 11:51:01;;;;;;;;;;;;;;;21.74;43.48;99818.97;7265993;19;153908;-55
2023/03/22 11:53:32;;;;;;;;;;;;;;;21.70;43.81;99821.66;7256522;19;153441;-55
2023/03/22 11:56:00;;;;;;;;;;;;;;;21.67;43.60;99813.88;7252497;19;152827;-55
2023/03/22 11:58:41;;;;;;;;;;;;;;;21.68;43.48;99809.91;7249989;19;153237;-55
2023/03/22 12:01:17;;;;;;;;;;;;;;;21.69;43.72;99824.78;7253619;19;154263;-55
2023/03/22 12:03:56;;;;;;;;;;;;;;;21.65;43.63;99816.22;7256233;19;153144;-55
2023/03/22 12:06:26;;;;;;;;;;;;;;;21.70;43.76;99803.94;7255973;19;152589;-55
2023/03/22 12:09:00;;;;;;;;;;;;;;;21.69;43.68;99811.56;7254614;19;154117;-55
2023/03/22 12:11:30;;;;;;;;;;;;;;;21.74;43.50;99805.72;7258239;19;153790;-55
2023/03/22 12:14:00;;;;;;;;;;;;;;;21.72;43.76;99794.00;7266612;19;153585;-55
2023/03/22 12:16:31;;;;;;;;;;;;;;;21.70;43.78;99798.31;7258570;19;153042;-55
2023/03/22 12:19:00;;;;;;;;;;;;;;;21.66;44.27;99806.63;7257135;19;154830;-55
2023/03/22 12:21:28;;;;;;;;;;;;;;;21.64;43.88;99810.94;7259280;19;153496;-55
2023/03/22 12:23:57;;;;;;;;;;;;;;;21.64;43.92;99799.69;7256512;19;154273;-55
2023/03/22 12:26:26;;;;;;;;;;;;;;;21.65;43.81;99804.97;7257958;19;153267;-55
2023/03/22 12:28:54;;;;;;;;;;;;;;;21.69;43.70;99791.88;7255231;19;153936;-55
2023/03/22 12:31:25;;;;;;;;;;;;;;;21.68;43.94;99789.41;7255652;19;151943;-55
2023/03/22 12:33:53;;;;;;;;;;;;;;;21.69;44.03;99782.63;7261038;19;152578;-55
2023/03/22 12:36:24;;;;;;;;;;;;;;;21.69;43.88;99796.69;7257621;19;153116;-55
2023/03/22 12:38:53;;;;;;;;;;;;;;;21.63;44.29;99789.59;7256441;19;154797;-54
2023/03/22 12:41:23;;;;;;;;;;;;;;;21.58;43.87;99793.44;7254243;19;153646;-55
2023/03/22 12:43:52;;;;;;;;;;;;;;;21.47;44.22;99785.78;7256928;19;153239;-54